createdAt,value
2022-10-15T00:01:52.650Z,17.13
2022-10-15T00:06:54.549Z,15.88
2022-10-15T00:11:56.391Z,16.15
2022-10-15T00:16:58.261Z,18.67
2022-10-15T00:27:06.980Z,13.27
2022-10-15T00:32:09.304Z,16.98
2022-10-15T00:37:14.013Z,15.18
2022-10-15T00:42:16.970Z,14.40
2022-10-15T00:47:23.780Z,15.02
2022-10-15T00:52:47.810Z,15.20
2022-10-15T00:57:50.746Z,15.02
2022-10-15T01:02:52.566Z,17.10
2022-10-15T01:07:54.714Z,20.65
2022-10-15T01:13:20.203Z,17.27
2022-10-15T01:18:53.336Z,20.55
2022-10-15T01:24:06.973Z,20.75
2022-10-15T01:29:30.357Z,23.38
2022-10-15T01:34:47.059Z,20.00
2022-10-15T01:39:57.545Z,18.33
2022-10-15T01:45:07.769Z,22.58
2022-10-15T01:50:31.087Z,20.30
2022-10-15T01:55:36.827Z,19.50
2022-10-15T02:00:41.634Z,17.98
2022-10-15T02:06:02.928Z,19.02
2022-10-15T02:11:09.897Z,18.07
2022-10-15T02:16:21.255Z,17.27
2022-10-15T02:21:32.890Z,18.58
2022-10-15T02:26:37.577Z,19.83
2022-10-15T02:31:43.796Z,16.60
2022-10-15T02:36:47.060Z,19.98
2022-10-15T02:41:49.227Z,15.65
2022-10-15T02:46:51.241Z,23.77
2022-10-15T02:51:54.851Z,18.08
2022-10-15T02:56:56.754Z,16.80
2022-10-15T03:01:59.414Z,17.25
2022-10-15T03:07:02.466Z,21.73
2022-10-15T03:12:06.412Z,17.50
2022-10-15T03:17:08.768Z,17.27
2022-10-15T03:22:10.978Z,18.40
2022-10-15T03:27:24.413Z,19.95
2022-10-15T03:32:26.876Z,19.00
2022-10-15T03:37:29.033Z,22.40
2022-10-15T03:42:31.529Z,20.50
2022-10-15T03:47:34.798Z,20.00
2022-10-15T03:52:37.697Z,18.40
2022-10-15T03:57:39.992Z,20.30
2022-10-15T04:02:42.322Z,16.17
2022-10-15T04:07:54.877Z,19.00
2022-10-15T04:12:58.301Z,19.67
2022-10-15T04:18:01.564Z,24.25
2022-10-15T04:23:04.680Z,21.70
2022-10-15T04:28:07.223Z,26.48
2022-10-15T04:33:11.795Z,21.38
2022-10-15T04:38:14.715Z,21.15
2022-10-15T04:43:34.145Z,27.45
2022-10-15T04:48:42.999Z,24.70
2022-10-15T04:53:47.914Z,24.90
2022-10-15T04:58:51.235Z,26.08
2022-10-15T05:03:53.226Z,20.70
2022-10-15T05:08:55.132Z,22.38
2022-10-15T05:14:04.080Z,22.33
2022-10-15T05:19:08.843Z,23.35
2022-10-15T05:24:13.038Z,20.10
2022-10-15T05:29:50.114Z,24.35
2022-10-15T05:34:52.003Z,20.13
2022-10-15T05:39:54.036Z,20.52
2022-10-15T05:44:56.094Z,22.42
2022-10-15T05:49:57.913Z,21.70
2022-10-15T05:55:05.084Z,19.88
2022-10-15T06:00:08.612Z,27.05
2022-10-15T06:05:16.258Z,22.35
2022-10-15T06:10:18.481Z,20.70
2022-10-15T06:15:20.377Z,17.13
2022-10-15T06:20:22.257Z,19.48
2022-10-15T06:25:24.178Z,21.95
2022-10-15T06:30:25.965Z,22.70
2022-10-15T06:35:30.559Z,21.23
2022-10-15T06:40:32.741Z,20.70
2022-10-15T06:45:36.695Z,16.23
2022-10-15T06:50:42.462Z,17.35
2022-10-15T06:55:44.356Z,14.88
2022-10-15T07:00:46.172Z,13.20
2022-10-15T07:05:48.036Z,13.77
2022-10-15T07:10:49.853Z,13.55
2022-10-15T07:15:54.198Z,22.17
2022-10-15T07:20:57.250Z,11.75
2022-10-15T07:26:00.694Z,13.15
2022-10-15T07:31:04.594Z,11.13
2022-10-15T07:36:08.833Z,13.95
2022-10-15T07:41:11.078Z,14.15
2022-10-15T07:46:17.195Z,9.93
2022-10-15T07:51:19.134Z,10.38
2022-10-15T07:56:20.976Z,12.70
2022-10-15T08:01:22.835Z,7.78
2022-10-15T08:06:24.755Z,7.50
2022-10-15T08:11:27.145Z,11.07
2022-10-15T08:16:29.232Z,7.78
2022-10-15T08:21:33.515Z,9.95
2022-10-15T08:26:36.664Z,11.77
2022-10-15T08:31:39.615Z,8.07
2022-10-15T08:36:41.375Z,8.23
2022-10-15T08:41:48.866Z,7.88
2022-10-15T08:46:55.243Z,4.45
2022-10-15T08:52:07.903Z,7.80
2022-10-15T08:57:18.767Z,4.93
2022-10-15T09:02:34.888Z,5.03
2022-10-15T09:07:45.131Z,3.45
2022-10-15T09:13:02.038Z,4.18
2022-10-15T09:18:04.859Z,6.68
2022-10-15T09:23:22.538Z,6.38
2022-10-15T09:28:29.937Z,7.40
2022-10-15T09:33:31.952Z,6.50
2022-10-15T09:38:50.180Z,6.45
2022-10-15T09:43:55.953Z,6.25
2022-10-15T09:49:11.790Z,7.00
2022-10-15T09:54:36.050Z,13.55
2022-10-15T09:59:37.932Z,3.78
2022-10-15T10:04:40.598Z,2.15
2022-10-15T10:09:55.708Z,1.33
2022-10-15T10:14:57.419Z,1.85
2022-10-15T10:20:14.888Z,7.25
2022-10-15T10:25:29.113Z,2.95
2022-10-15T10:30:37.435Z,1.15
2022-10-15T10:35:50.346Z,0.73
2022-10-15T10:41:00.549Z,7.15
2022-10-15T10:46:23.497Z,0.90
2022-10-15T10:51:27.861Z,1.50
2022-10-15T10:56:35.669Z,1.13
2022-10-15T11:01:37.569Z,0.77
2022-10-15T11:07:01.022Z,2.08
2022-10-15T11:12:20.918Z,2.60
2022-10-15T11:17:37.596Z,0.30
2022-10-15T11:23:13.351Z,1.05
2022-10-15T11:28:52.682Z,1.17
2022-10-15T11:34:03.495Z,0.40
2022-10-15T11:39:20.246Z,0.63
2022-10-15T11:44:48.536Z,3.28
2022-10-15T11:49:59.421Z,3.03
2022-10-15T11:55:50.173Z,1.38
2022-10-15T12:00:58.999Z,3.80
2022-10-15T12:06:11.440Z,3.03
2022-10-15T12:11:44.602Z,0.75
2022-10-15T12:22:39.798Z,2.88
2022-10-15T12:27:42.337Z,0.40
2022-10-15T12:32:47.811Z,0.40
2022-10-15T12:37:50.965Z,1.48
2022-10-15T12:43:01.745Z,0.30
2022-10-15T12:48:05.458Z,0.80
2022-10-15T12:53:26.559Z,2.42
2022-10-15T12:58:34.924Z,3.00
2022-10-15T13:03:58.856Z,4.10
2022-10-15T13:09:06.831Z,0.88
2022-10-15T13:14:27.948Z,1.10
2022-10-15T13:19:41.092Z,2.20
2022-10-15T13:24:45.691Z,0.20
2022-10-15T13:29:59.741Z,0.20
2022-10-15T13:35:10.773Z,0.93
2022-10-15T13:40:25.598Z,0.82
2022-10-15T13:45:27.622Z,3.30
2022-10-15T13:50:33.049Z,0.45
2022-10-15T13:55:39.094Z,1.85
2022-10-15T14:00:41.179Z,5.78
2022-10-15T14:05:45.980Z,1.48
2022-10-15T14:10:49.767Z,0.60
2022-10-15T14:15:54.378Z,0.75
2022-10-15T14:20:57.076Z,5.97
2022-10-15T14:26:02.331Z,0.30
2022-10-15T14:31:04.842Z,0.90
2022-10-15T14:36:41.341Z,0.45
2022-10-15T14:42:04.627Z,0.68
2022-10-15T14:47:06.692Z,0.75
2022-10-15T14:52:15.298Z,4.25
2022-10-15T14:57:27.585Z,3.42
2022-10-15T15:02:30.321Z,0.60
2022-10-15T15:07:32.227Z,0.40
2022-10-15T15:12:35.976Z,0.60
2022-10-15T15:17:38.242Z,2.90
2022-10-15T15:22:41.988Z,2.78
2022-10-15T15:27:44.142Z,7.13
2022-10-15T15:32:46.938Z,1.02
2022-10-15T15:37:48.790Z,0.47
2022-10-15T15:42:50.863Z,3.38
2022-10-15T15:47:53.576Z,0.40
2022-10-15T15:52:55.759Z,1.23
2022-10-15T15:57:57.607Z,1.05
2022-10-15T16:02:59.404Z,3.38
2022-10-15T16:08:01.308Z,1.30
2022-10-15T16:13:03.414Z,0.80
2022-10-15T16:18:05.327Z,1.67
2022-10-15T16:23:07.109Z,1.20
2022-10-15T16:28:08.935Z,4.57
2022-10-15T16:33:10.900Z,1.58
2022-10-15T16:38:12.825Z,3.08
2022-10-15T16:43:14.728Z,4.15
2022-10-15T16:48:17.256Z,3.17
2022-10-15T16:53:19.532Z,2.42
2022-10-15T16:58:21.630Z,1.40
2022-10-15T17:03:23.854Z,1.00
2022-10-15T17:08:46.378Z,2.95
2022-10-15T17:13:50.696Z,8.50
2022-10-15T17:18:54.168Z,4.13
2022-10-15T17:23:58.697Z,4.43
2022-10-15T17:29:01.101Z,2.95
2022-10-15T17:34:06.402Z,8.07
2022-10-15T17:39:09.584Z,3.92
2022-10-15T17:44:12.239Z,3.90
2022-10-15T17:49:18.419Z,1.35
2022-10-15T17:54:20.348Z,3.10
2022-10-15T17:59:22.125Z,2.47
2022-10-15T18:04:24.489Z,2.78
2022-10-15T18:09:28.296Z,9.68
2022-10-15T18:14:32.189Z,5.35
2022-10-15T18:19:34.283Z,4.95
2022-10-15T18:24:36.345Z,7.43
2022-10-15T18:29:40.076Z,3.97
2022-10-15T18:34:42.859Z,6.07
2022-10-15T18:39:45.008Z,5.35
2022-10-15T18:44:47.202Z,3.72
2022-10-15T18:49:49.124Z,7.80
2022-10-15T18:54:51.103Z,4.20
2022-10-15T19:05:00.361Z,1.95
2022-10-15T19:10:02.793Z,3.63
2022-10-15T19:15:05.150Z,3.25
2022-10-15T19:20:07.458Z,4.53
2022-10-15T19:25:09.666Z,8.07
2022-10-15T19:30:12.107Z,15.35
2022-10-15T19:35:14.766Z,26.92
2022-10-15T19:40:16.720Z,11.70
2022-10-15T19:45:19.031Z,17.23
2022-10-15T19:50:20.896Z,12.35
2022-10-15T19:55:25.675Z,10.20
2022-10-15T20:00:29.735Z,8.65
2022-10-15T20:05:31.580Z,9.07
2022-10-15T20:10:33.558Z,7.07
2022-10-15T20:15:35.397Z,7.05
2022-10-15T20:20:43.038Z,4.63
2022-10-15T20:25:46.069Z,5.57
2022-10-15T20:30:49.840Z,5.45
2022-10-15T20:35:51.750Z,4.68
2022-10-15T20:40:56.760Z,6.43
2022-10-15T20:45:58.633Z,10.55
2022-10-15T20:51:01.530Z,9.07
2022-10-15T20:56:06.146Z,7.93
2022-10-15T21:01:08.148Z,4.50
2022-10-15T21:06:09.999Z,5.05
2022-10-15T21:11:11.786Z,3.85
2022-10-15T21:16:13.678Z,4.30
2022-10-15T21:21:15.720Z,5.72
2022-10-15T21:26:18.574Z,7.90
2022-10-15T21:31:20.401Z,4.05
2022-10-15T21:36:26.515Z,3.67
2022-10-15T21:41:30.758Z,3.50
2022-10-15T21:46:33.078Z,3.80
2022-10-15T21:51:36.026Z,3.13
2022-10-15T21:56:38.229Z,3.17
2022-10-15T22:01:42.117Z,3.55
2022-10-15T22:06:44.208Z,5.93
2022-10-15T22:11:46.516Z,5.07
2022-10-15T22:16:48.364Z,3.05
2022-10-15T22:21:50.178Z,5.25
2022-10-15T22:26:52.851Z,4.60
2022-10-15T22:31:55.108Z,3.42
2022-10-15T22:36:57.009Z,3.95
2022-10-15T22:41:58.877Z,2.40
2022-10-15T22:47:00.692Z,2.90
2022-10-15T22:52:02.895Z,1.90
2022-10-15T22:57:04.722Z,3.50
2022-10-15T23:02:06.558Z,2.97
2022-10-15T23:07:08.352Z,6.68
2022-10-15T23:12:10.178Z,2.65
2022-10-15T23:17:11.989Z,3.00
2022-10-15T23:22:13.834Z,4.72
2022-10-15T23:27:16.224Z,6.85
2022-10-15T23:32:18.043Z,2.25
2022-10-15T23:37:19.868Z,3.58
2022-10-15T23:42:21.747Z,3.20
2022-10-15T23:47:23.895Z,2.97
2022-10-15T23:52:25.960Z,5.93
2022-10-15T23:57:28.241Z,3.05
